Time;durP1;ratioP1;P1;durP2;ratioP2;P2;SDS_P1;SDS_P2;PMS_P1;PMS_P2;Temp;Humidity;BMP_temperature;BMP_pressure;BME280_temperature;BME280_humidity;BME280_pressure;Samples;Min_cycle;Max_cycle;Signal;HPM_P1;HPM_P2
2020/12/02 00:01:37;;;;;;;12.20;3.90;;;;;;;3.34;100.00;100808.16;5114050;28;20399;-75
2020/12/02 00:04:21;;;;;;;11.27;3.42;;;;;;;3.34;100.00;100791.63;5114359;28;20062;-76
2020/12/02 00:07:07;;;;;;;14.20;3.90;;;;;;;3.34;100.00;100794.38;5114669;28;20491;-75
2020/12/02 00:09:51;;;;;;;10.02;3.20;;;;;;;3.34;100.00;100780.63;5114183;28;20051;-75
2020/12/02 00:12:36;;;;;;;16.15;3.95;;;;;;;3.35;100.00;100777.47;5114600;28;20038;-75
2020/12/02 00:15:20;;;;;;;4.38;2.15;;;;;;;3.37;100.00;100777.06;5114080;28;20046;-75
2020/12/02 00:18:04;;;;;;;8.05;3.65;;;;;;;3.37;100.00;100768.81;5114429;28;20438;-74
2020/12/02 00:20:48;;;;;;;10.10;4.20;;;;;;;3.40;100.00;100762.50;5114673;28;20096;-75
2020/12/02 00:23:32;;;;;;;18.90;3.00;;;;;;;3.41;100.00;100764.06;5114408;28;20039;-75
2020/12/02 00:26:16;;;;;;;7.97;2.40;;;;;;;3.41;100.00;100758.56;5114052;28;20054;-74
2020/12/02 00:28:59;;;;;;;7.88;3.40;;;;;;;3.42;100.00;100749.13;5114323;28;20035;-75
2020/12/02 00:31:43;;;;;;;6.43;2.83;;;;;;;3.42;100.00;100749.88;5114378;28;20142;-74
2020/12/02 00:34:27;;;;;;;12.38;3.55;;;;;;;3.43;100.00;100750.66;5113674;28;20055;-74
2020/12/02 00:37:12;;;;;;;17.40;2.78;;;;;;;3.44;100.00;100757.75;5114045;28;20050;-75
2020/12/02 00:39:57;;;;;;;6.53;2.20;;;;;;;3.44;100.00;100755.00;5114035;28;20101;-74
2020/12/02 00:42:41;;;;;;;9.57;3.17;;;;;;;3.46;100.00;100749.88;5114574;28;20055;-74
2020/12/02 00:45:25;;;;;;;12.98;3.70;;;;;;;3.47;100.00;100751.41;5113896;28;20089;-75
2020/12/02 00:48:19;;;;;;;4.28;2.70;;;;;;;3.48;100.00;100750.25;5113969;28;20086;-75
2020/12/02 00:51:05;;;;;;;18.58;4.40;;;;;;;3.47;100.00;100740.41;5114044;28;20054;-74
2020/12/02 00:53:49;;;;;;;4.55;3.38;;;;;;;3.48;100.00;100736.47;5114451;28;20074;-75
2020/12/02 00:56:36;;;;;;;11.07;2.88;;;;;;;3.48;100.00;100740.03;5116903;28;20047;-76
2020/12/02 00:59:25;;;;;;;3.85;3.15;;;;;;;3.47;100.00;100724.66;5117808;28;20096;-75
2020/12/02 01:02:28;;;;;;;19.17;3.58;;;;;;;3.48;100.00;100725.47;5116177;28;20047;-75
2020/12/02 01:05:16;;;;;;;3.92;2.30;;;;;;;3.48;100.00;100725.47;5116052;28;20052;-74
2020/12/02 01:08:17;;;;;;;7.28;2.92;;;;;;;3.47;100.00;100721.91;5115074;28;20134;-74
2020/12/02 01:11:08;;;;;;;7.43;2.80;;;;;;;3.48;100.00;100722.72;5118169;28;20066;-75
2020/12/02 01:13:59;;;;;;;5.85;2.45;;;;;;;3.47;100.00;100721.91;5114318;28;20043;-75
2020/12/02 01:16:48;;;;;;;1.43;1.30;;;;;;;3.48;100.00;100723.50;5115023;28;20514;-74
2020/12/02 01:19:35;;;;;;;1.90;1.80;;;;;;;3.49;100.00;100719.53;5114919;28;20900;-75
2020/12/02 01:22:27;;;;;;;4.80;2.92;;;;;;;3.50;100.00;100715.63;5114983;28;20042;-75
2020/12/02 01:25:18;;;;;;;5.82;2.55;;;;;;;3.51;100.00;100713.66;5115891;28;20059;-74
2020/12/02 01:28:07;;;;;;;5.35;2.75;;;;;;;3.53;100.00;100703.75;5112244;28;20042;-75
2020/12/02 01:30:51;;;;;;;6.35;3.28;;;;;;;3.53;100.00;100705.75;5112334;28;20039;-75
2020/12/02 01:33:35;;;;;;;11.45;3.10;;;;;;;3.54;100.00;100694.34;5111964;28;20502;-75
2020/12/02 01:36:28;;;;;;;10.60;3.83;;;;;;;3.53;100.00;100678.22;5112441;28;20085;-75
2020/12/02 01:39:12;;;;;;;12.20;1.85;;;;;;;3.55;100.00;100676.59;5112256;28;20482;-75
2020/12/02 01:41:57;;;;;;;4.43;2.75;;;;;;;3.57;100.00;100662.44;5112857;28;20082;-75
2020/12/02 01:44:46;;;;;;;9.65;3.42;;;;;;;3.57;100.00;100656.94;5112441;28;20607;-75
2020/12/02 01:47:42;;;;;;;7.25;2.85;;;;;;;3.58;100.00;100652.97;5112430;28;20092;-75
2020/12/02 01:50:46;;;;;;;2.15;1.83;;;;;;;3.59;100.00;100654.56;5112636;28;20575;-75
2020/12/02 01:53:54;;;;;;;4.45;2.30;;;;;;;3.58;100.00;100651.00;5112073;28;20050;-75
2020/12/02 01:57:02;;;;;;;5.40;2.08;;;;;;;3.60;100.00;100651.38;5112105;28;20202;-75
2020/12/02 02:00:14;;;;;;;8.55;3.25;;;;;;;3.62;100.00;100648.22;5112370;28;20046;-75
2020/12/02 02:03:10;;;;;;;11.55;2.25;;;;;;;3.60;100.00;100656.09;5113838;28;20082;-74
2020/12/02 02:06:06;;;;;;;32.22;3.92;;;;;;;3.61;100.00;100641.16;5116709;28;20128;-73
2020/12/02 02:08:53;;;;;;;3.42;2.58;;;;;;;3.61;100.00;100632.91;5116687;28;20407;-73
2020/12/02 02:11:47;;;;;;;8.20;3.05;;;;;;;3.62;100.00;100631.69;5116609;28;20042;-73
2020/12/02 02:14:47;;;;;;;10.07;3.38;;;;;;;3.62;100.00;100629.72;5114884;28;20598;-73
2020/12/02 02:17:31;;;;;;;1.50;1.38;;;;;;;3.63;100.00;100619.50;5115523;28;20035;-75
2020/12/02 02:20:17;;;;;;;7.57;2.65;;;;;;;3.62;100.00;100621.47;5116059;28;20042;-75
2020/12/02 02:23:02;;;;;;;6.00;3.20;;;;;;;3.64;100.00;100618.28;5115217;28;20120;-74
2020/12/02 02:26:14;;;;;;;5.38;3.38;;;;;;;3.64;100.00;100610.81;5115736;28;20070;-75
2020/12/02 02:29:30;;;;;;;3.10;2.17;;;;;;;3.65;100.00;100601.38;5116233;28;20046;-74
2020/12/02 02:32:24;;;;;;;2.20;1.58;;;;;;;3.68;100.00;100597.03;5095644;28;20097;-73
2020/12/02 02:35:10;;;;;;;4.75;1.90;;;;;;;3.67;100.00;100585.22;5094327;28;20539;-74
2020/12/02 02:37:54;;;;;;;4.95;3.38;;;;;;;3.67;100.00;100576.16;5094981;28;20120;-74
2020/12/02 02:40:38;;;;;;;5.25;3.33;;;;;;;3.69;100.00;100576.53;5094030;28;20098;-74
2020/12/02 02:43:22;;;;;;;6.53;2.67;;;;;;;3.69;100.00;100568.28;5095671;28;20047;-74
2020/12/02 02:46:07;;;;;;;4.72;2.70;;;;;;;3.69;100.00;100562.75;5095522;28;20078;-74
2020/12/02 02:48:51;;;;;;;7.80;3.25;;;;;;;3.69;100.00;100560.81;5095468;28;20039;-74
2020/12/02 02:51:35;;;;;;;4.97;2.40;;;;;;;3.69;100.00;100549.00;5095502;28;20657;-74
2020/12/02 02:54:19;;;;;;;5.38;2.67;;;;;;;3.70;100.00;100545.81;5079894;28;20756;-74
2020/12/02 02:57:03;;;;;;;11.32;3.20;;;;;;;3.70;100.00;100529.28;5095062;28;20113;-74
2020/12/02 02:59:47;;;;;;;4.78;2.45;;;;;;;3.73;100.00;100535.97;5095114;28;20043;-74
2020/12/02 03:02:32;;;;;;;6.22;2.08;;;;;;;3.74;100.00;100535.56;5095600;28;20140;-74
2020/12/02 03:05:17;;;;;;;6.65;3.10;;;;;;;3.76;100.00;100532.38;5095182;28;20051;-74
2020/12/02 03:08:06;;;;;;;14.30;3.30;;;;;;;3.77;100.00;100531.97;5095500;28;20428;-74
2020/12/02 03:10:51;;;;;;;3.67;1.90;;;;;;;3.81;100.00;100523.69;5095281;28;20087;-74
2020/12/02 03:13:48;;;;;;;10.98;3.42;;;;;;;3.82;100.00;100525.22;5094613;28;20043;-74
2020/12/02 03:16:51;;;;;;;2.67;1.85;;;;;;;3.82;100.00;100527.97;5094820;28;20055;-74
2020/12/02 03:19:39;;;;;;;5.43;1.58;;;;;;;3.85;100.00;100529.91;5094882;28;20499;-74
2020/12/02 03:22:25;;;;;;;6.07;1.98;;;;;;;3.85;100.00;100538.19;5094936;28;20105;-74
2020/12/02 03:25:19;;;;;;;5.35;2.53;;;;;;;3.87;100.00;100533.03;5094374;28;20043;-74
2020/12/02 03:28:04;;;;;;;3.38;1.85;;;;;;;3.87;100.00;100524.78;5094788;28;20180;-74
2020/12/02 03:30:48;;;;;;;9.85;2.22;;;;;;;3.86;100.00;100525.94;5104433;28;20495;-74
2020/12/02 03:33:32;;;;;;;12.32;3.47;;;;;;;3.88;100.00;100518.06;5114699;28;20175;-74
2020/12/02 03:36:19;;;;;;;11.57;2.80;;;;;;;3.88;100.00;100520.81;5115176;28;20093;-74
2020/12/02 03:39:05;;;;;;;8.07;2.65;;;;;;;3.89;100.00;100513.31;5128838;27;20046;-74
2020/12/02 03:41:49;;;;;;;12.00;2.67;;;;;;;3.89;100.00;100514.13;5115214;28;20089;-74
2020/12/02 03:44:33;;;;;;;7.55;2.58;;;;;;;3.89;100.00;100511.34;5114730;28;20050;-75
2020/12/02 03:47:17;;;;;;;3.75;1.63;;;;;;;3.88;100.00;100504.28;5114991;28;20205;-75
2020/12/02 04:38:18;;;;;;;13.57;3.03;;;;;;;3.88;100.00;100451.94;4897384;29;20409;-81
2020/12/02 04:41:08;;;;;;;8.55;2.33;;;;;;;3.88;100.00;100449.19;4883966;29;20441;-80
2020/12/02 04:43:54;;;;;;;5.90;2.70;;;;;;;3.89;100.00;100439.72;4897832;29;20064;-80
2020/12/02 04:46:39;;;;;;;4.72;2.53;;;;;;;3.88;100.00;100429.88;4897715;29;20489;-80
2020/12/02 04:49:29;;;;;;;9.50;2.38;;;;;;;3.89;100.00;100414.94;4897794;29;20048;-79
2020/12/02 04:52:14;;;;;;;6.93;2.50;;;;;;;3.91;100.00;100417.25;4897989;29;20055;-80
2020/12/02 04:54:58;;;;;;;4.72;2.80;;;;;;;3.89;100.00;100403.91;4897975;29;20051;-80
2020/12/02 04:57:42;;;;;;;15.63;2.53;;;;;;;3.90;100.00;100399.94;4897748;29;20103;-80
2020/12/02 05:00:30;;;;;;;6.95;2.17;;;;;;;3.90;100.00;100394.44;4897838;29;20567;-79
2020/12/02 05:03:15;;;;;;;8.27;2.25;;;;;;;3.89;100.00;100401.16;4909890;29;20104;-80
2020/12/02 05:06:01;;;;;;;4.53;2.50;;;;;;;3.91;100.00;100396.00;4897437;29;20572;-80
2020/12/02 05:08:45;;;;;;;3.47;2.25;;;;;;;3.93;100.00;100398.34;4897676;29;20644;-81
2020/12/02 05:11:29;;;;;;;5.82;2.47;;;;;;;3.93;100.00;100390.84;4897568;29;20192;-80
2020/12/02 05:14:15;;;;;;;4.28;1.65;;;;;;;3.93;100.00;100393.63;4897323;29;20420;-80
2020/12/02 05:17:04;;;;;;;12.77;4.10;;;;;;;3.94;100.00;100389.69;4897421;29;20540;-80
2020/12/02 05:20:05;;;;;;;5.13;2.22;;;;;;;3.94;100.00;100384.16;4909506;29;20454;-80
2020/12/02 05:22:50;;;;;;;5.55;2.22;;;;;;;3.94;100.00;100367.63;4896449;29;20128;-80
2020/12/02 05:25:35;;;;;;;8.48;3.15;;;;;;;3.94;100.00;100373.16;4895952;29;20469;-80
2020/12/02 05:28:39;;;;;;;16.70;5.95;;;;;;;3.96;100.00;100370.75;4897132;29;20516;-78
2020/12/02 05:31:32;;;;;;;10.60;3.42;;;;;;;3.99;100.00;100358.88;4897529;29;20104;-78
2020/12/02 05:34:18;;;;;;;4.40;1.65;;;;;;;3.99;100.00;100356.13;4897131;29;20092;-78
2020/12/02 05:37:08;;;;;;;4.03;2.05;;;;;;;4.00;100.00;100360.44;4896350;29;20107;-78
2020/12/02 05:39:57;;;;;;;3.95;1.75;;;;;;;4.01;100.00;100345.44;4896906;29;20100;-84
2020/12/02 05:42:46;;;;;;;2.55;1.98;;;;;;;4.04;100.00;100341.09;4896923;29;20052;-80
2020/12/02 05:45:37;;;;;;;6.47;2.78;;;;;;;4.08;100.00;100342.59;4896711;29;20112;-79
2020/12/02 05:48:34;;;;;;;8.55;2.03;;;;;;;4.12;100.00;100332.28;4897104;29;20350;-78
2020/12/02 05:51:20;;;;;;;13.57;3.70;;;;;;;4.21;100.00;100326.22;4896851;29;20100;-78
2020/12/02 05:54:09;;;;;;;9.00;1.60;;;;;;;4.21;100.00;100338.03;4897095;29;20083;-78
2020/12/02 05:56:56;;;;;;;11.45;1.98;;;;;;;4.20;100.00;100330.94;4908872;29;20077;-78
2020/12/02 05:59:40;;;;;;;3.53;2.13;;;;;;;4.24;100.00;100325.38;4896734;29;20511;-77
2020/12/02 06:02:25;;;;;;;4.03;2.38;;;;;;;4.25;100.00;100322.19;4896917;29;20060;-77
2020/12/02 06:05:13;;;;;;;2.97;2.03;;;;;;;4.27;100.00;100313.50;4896836;29;20104;-78
2020/12/02 06:08:00;;;;;;;2.97;1.65;;;;;;;4.30;100.00;100310.69;4896773;29;20075;-78
2020/12/02 06:10:44;;;;;;;5.10;2.08;;;;;;;4.34;100.00;100296.84;4896488;29;20059;-77
2020/12/02 06:13:40;;;;;;;5.43;2.78;;;;;;;4.35;100.00;100293.66;4896724;29;20036;-77
2020/12/02 06:16:39;;;;;;;2.58;1.85;;;;;;;4.37;100.00;100296.00;4896976;29;20052;-78
2020/12/02 06:19:55;;;;;;;1.70;0.93;;;;;;;4.38;100.00;100284.53;4896520;29;20044;-78
2020/12/02 06:22:49;;;;;;;4.20;1.58;;;;;;;4.39;100.00;100277.84;4896578;29;20140;-77
2020/12/02 06:25:53;;;;;;;6.90;2.05;;;;;;;4.41;100.00;100280.16;4896318;29;20051;-77
2020/12/02 06:28:37;;;;;;;7.93;2.15;;;;;;;4.39;100.00;100277.84;4896738;29;20547;-77
2020/12/02 06:31:27;;;;;;;3.65;1.45;;;;;;;4.40;100.00;100265.59;4896589;29;20070;-77
2020/12/02 06:34:22;;;;;;;4.38;1.98;;;;;;;4.41;100.00;100269.91;4896462;29;20141;-77
2020/12/02 06:37:11;;;;;;;1.80;0.98;;;;;;;4.41;100.00;100258.09;4896572;29;20509;-77
2020/12/02 06:39:59;;;;;;;4.63;1.33;;;;;;;4.43;100.00;100259.25;4896210;29;20397;-77
2020/12/02 06:42:44;;;;;;;12.30;2.42;;;;;;;4.42;100.00;100254.91;4896168;29;20128;-78
2020/12/02 06:45:37;;;;;;;6.00;1.48;;;;;;;4.43;100.00;100245.47;4896508;29;20101;-77
2020/12/02 06:48:24;;;;;;;2.42;1.73;;;;;;;4.43;100.00;100242.69;4882468;29;20052;-77
2020/12/02 06:51:11;;;;;;;7.88;2.35;;;;;;;4.44;100.00;100241.47;4899955;29;20679;-77
2020/12/02 06:53:55;;;;;;;1.77;1.48;;;;;;;4.44;100.00;100229.69;4900343;29;20068;-77
2020/12/02 06:56:39;;;;;;;15.88;1.90;;;;;;;4.44;100.00;100221.44;4899794;29;20077;-77
2020/12/02 06:59:23;;;;;;;4.45;1.58;;;;;;;4.46;100.00;100217.03;4900017;29;20051;-78
2020/12/02 07:02:25;;;;;;;5.05;1.50;;;;;;;4.47;100.00;100223.31;4900252;29;20091;-77
2020/12/02 07:05:39;;;;;;;3.80;2.25;;;;;;;4.47;100.00;100224.09;4899825;29;20052;-78
2020/12/02 07:08:31;;;;;;;2.03;0.75;;;;;;;4.47;100.00;100224.09;4899905;29;20068;-77
2020/12/02 07:11:23;;;;;;;2.20;1.05;;;;;;;4.49;100.00;100231.94;4899724;29;20051;-78
2020/12/02 07:14:20;;;;;;;9.25;1.73;;;;;;;4.50;100.00;100226.00;4899335;29;20118;-77
2020/12/02 07:17:11;;;;;;;3.33;0.82;;;;;;;4.49;100.00;100227.22;4899549;29;20148;-77
2020/12/02 07:20:03;;;;;;;7.82;1.67;;;;;;;4.51;100.00;100230.31;4899419;29;20616;-77
2020/12/02 07:22:57;;;;;;;6.00;2.17;;;;;;;4.50;100.00;100223.22;4899428;29;20111;-77
2020/12/02 07:25:42;;;;;;;5.55;2.00;;;;;;;4.51;100.00;100230.31;4899119;29;20060;-77
2020/12/02 07:28:27;;;;;;;5.88;1.60;;;;;;;4.53;100.00;100227.13;4899262;29;20063;-77
2020/12/02 07:31:22;;;;;;;5.13;2.00;;;;;;;4.53;100.00;100236.19;4899271;29;20080;-77
2020/12/02 07:34:16;;;;;;;2.88;1.10;;;;;;;4.57;100.00;100234.13;4899143;29;20044;-77
2020/12/02 07:37:03;;;;;;;13.27;1.63;;;;;;;4.60;100.00;100227.78;4898807;29;20112;-78
2020/12/02 07:39:50;;;;;;;4.03;1.52;;;;;;;4.61;100.00;100223.78;4899171;29;20092;-77
2020/12/02 07:42:41;;;;;;;2.83;1.13;;;;;;;4.65;100.00;100223.75;4898896;29;20523;-77
2020/12/02 07:45:30;;;;;;;1.42;0.70;;;;;;;4.66;100.00;100230.03;4898875;29;20143;-77
2020/12/02 07:48:22;;;;;;;4.93;1.50;;;;;;;4.65;100.00;100228.47;4898698;29;20055;-77
2020/12/02 07:51:12;;;;;;;7.93;1.65;;;;;;;4.67;100.00;100231.56;4897940;29;20091;-77
2020/12/02 07:54:13;;;;;;;7.40;2.08;;;;;;;4.66;100.00;100228.03;4898654;29;20523;-78
2020/12/02 07:56:59;;;;;;;8.40;0.95;;;;;;;4.68;100.00;100230.38;4898793;29;20084;-77
2020/12/02 08:00:03;;;;;;;3.50;1.15;;;;;;;4.66;100.00;100224.53;4898612;29;20055;-78
2020/12/02 08:02:47;;;;;;;1.13;1.00;;;;;;;4.67;100.00;100226.06;4898654;29;20055;-78
2020/12/02 08:06:06;;;;;;;1.73;1.30;;;;;;;4.68;100.00;100222.88;4898556;29;20259;-78
2020/12/02 08:08:49;;;;;;;4.05;1.58;;;;;;;4.68;100.00;100222.13;4896844;29;20473;-78
2020/12/02 08:11:33;;;;;;;2.95;0.85;;;;;;;4.68;100.00;100211.84;4898527;29;20406;-78
2020/12/02 08:14:25;;;;;;;4.00;1.52;;;;;;;4.71;100.00;100222.03;4898499;29;20047;-78
2020/12/02 08:17:20;;;;;;;;;;;;;;;4.71;100.00;100215.72;4898960;29;20055;-78
2020/12/02 08:20:31;;;;;;;0.98;0.68;;;;;;;4.73;100.00;100205.03;4898312;29;20431;-77
2020/12/02 08:23:26;;;;;;;3.95;1.70;;;;;;;4.75;100.00;100216.41;4898631;29;20516;-77
2020/12/02 08:26:18;;;;;;;2.50;0.85;;;;;;;4.75;100.00;100194.34;4897990;29;20125;-77
2020/12/02 08:29:04;;;;;;;;;;;;;;;4.76;100.00;100193.16;4898723;29;20727;-78
2020/12/02 08:32:00;;;;;;;2.83;0.63;;;;;;;4.77;100.00;100191.94;4898198;29;20031;-74
2020/12/02 08:34:44;;;;;;;13.20;1.20;;;;;;;4.80;100.00;100185.56;4898210;29;20622;-78
2020/12/02 08:37:38;;;;;;;5.00;1.27;;;;;;;4.82;100.00;100172.91;4897769;29;20079;-77
2020/12/02 08:40:28;;;;;;;2.55;1.30;;;;;;;4.82;100.00;100161.09;4897992;29;20079;-77
2020/12/02 08:43:16;;;;;;;4.50;1.50;;;;;;;4.80;100.00;100158.00;4897945;29;20044;-77
2020/12/02 08:46:06;;;;;;;2.17;1.10;;;;;;;4.78;100.00;100154.88;4897971;29;20071;-77
2020/12/02 08:49:02;;;;;;;2.85;1.17;;;;;;;4.72;100.00;100140.06;4897915;29;20055;-77
2020/12/02 08:51:46;;;;;;;3.20;1.75;;;;;;;4.70;100.00;100143.22;4897940;29;20100;-78
2020/12/02 08:54:30;;;;;;;0.88;0.82;;;;;;;4.68;100.00;100145.63;4898189;29;20175;-78
2020/12/02 08:57:15;;;;;;;2.45;0.73;;;;;;;4.70;100.00;100136.94;4897925;29;20051;-78
2020/12/02 08:59:59;;;;;;;5.60;1.20;;;;;;;4.76;100.00;100141.53;4898029;29;20051;-77
2020/12/02 09:02:44;;;;;;;3.15;1.08;;;;;;;4.84;100.00;100133.84;4898128;29;20078;-78
2020/12/02 09:05:28;;;;;;;1.10;0.45;;;;;;;4.96;100.00;100119.38;4897422;29;20083;-78
2020/12/02 09:08:12;;;;;;;5.95;1.55;;;;;;;5.07;100.00;100128.16;4897747;29;20214;-78
2020/12/02 09:10:56;;;;;;;2.30;0.85;;;;;;;5.15;100.00;100118.50;4898715;29;20043;-78
2020/12/02 09:13:40;;;;;;;3.58;0.82;;;;;;;5.23;100.00;100108.84;4909485;29;20051;-77
2020/12/02 09:16:31;;;;;;;2.72;0.65;;;;;;;5.34;100.00;100098.31;4898692;29;20453;-77
2020/12/02 09:19:16;;;;;;;;;;;;;;;5.45;100.00;100092.50;4897768;29;20520;-77
2020/12/02 09:22:00;;;;;;;1.20;0.65;;;;;;;5.56;100.00;100085.47;4897421;29;19933;-77
2020/12/02 09:24:46;;;;;;;2.08;0.88;;;;;;;5.69;100.00;100072.50;4896832;29;20047;-76
2020/12/02 09:27:31;;;;;;;3.50;1.40;;;;;;;5.76;100.00;100069.50;4897756;29;20123;-77
2020/12/02 09:30:16;;;;;;;5.82;1.10;;;;;;;5.81;100.00;100063.47;4898889;29;20079;-77
2020/12/02 09:33:00;;;;;;;3.72;0.80;;;;;;;5.87;100.00;100058.97;4896594;29;20101;-80
2020/12/02 09:35:44;;;;;;;2.90;1.58;;;;;;;5.92;100.00;100050.16;4897282;29;20095;-79
2020/12/02 09:38:28;;;;;;;3.95;0.80;;;;;;;5.96;100.00;100038.97;4897550;29;20087;-76
2020/12/02 09:41:27;;;;;;;4.72;0.85;;;;;;;6.00;100.00;100045.16;4897060;29;20051;-76
2020/12/02 09:44:39;;;;;;;2.45;1.92;;;;;;;6.02;100.00;100040.00;4896876;29;20088;-76
2020/12/02 09:47:23;;;;;;;;;;;;;;;6.05;100.00;100031.59;4887430;29;20051;-76
2020/12/02 09:50:08;;;;;;;10.35;2.30;;;;;;;6.06;100.00;100038.66;4878462;29;19960;-78
2020/12/02 09:52:52;;;;;;;4.10;0.57;;;;;;;6.10;100.00;100044.88;4878318;29;20512;-77
2020/12/02 09:55:36;;;;;;;3.28;1.67;;;;;;;6.14;100.00;100042.00;4878178;29;20103;-81
2020/12/02 09:58:20;;;;;;;3.13;1.15;;;;;;;6.22;100.00;100045.31;4878382;29;20118;-79
2020/12/02 10:01:12;;;;;;;1.52;1.35;;;;;;;6.28;100.00;100043.56;4878355;29;20052;-78
2020/12/02 10:04:19;;;;;;;3.65;0.75;;;;;;;6.31;100.00;100037.13;4878222;29;20052;-80
2020/12/02 10:07:29;;;;;;;6.80;0.82;;;;;;;6.35;100.00;100027.50;4878061;29;20104;-79
2020/12/02 10:10:38;;;;;;;1.90;1.13;;;;;;;6.41;100.00;100031.25;4878366;29;20135;-82
2020/12/02 10:13:40;;;;;;;0.82;0.38;;;;;;;6.47;100.00;100028.75;4880468;29;20467;-79
2020/12/02 10:16:54;;;;;;;3.60;0.90;;;;;;;6.52;100.00;100022.66;4897014;29;20059;-82
2020/12/02 10:19:47;;;;;;;2.58;0.77;;;;;;;6.51;100.00;100026.63;4896613;29;20047;-83
2020/12/02 10:22:53;;;;;;;4.68;1.38;;;;;;;6.50;100.00;100023.09;4897100;29;20112;-82
2020/12/02 10:25:49;;;;;;;1.13;0.43;;;;;;;6.49;100.00;100023.53;4900430;29;20124;-84
2020/12/02 10:29:06;;;;;;;6.07;1.05;;;;;;;6.47;100.00;100015.69;4900061;29;20055;-81
2020/12/02 10:31:55;;;;;;;4.43;1.15;;;;;;;6.49;100.00;100007.72;4900397;29;20077;-82
2020/12/02 10:34:43;;;;;;;0.55;0.50;;;;;;;6.53;100.00;100007.59;4900206;29;20520;-82
2020/12/02 10:37:33;;;;;;;6.90;1.38;;;;;;;6.57;100.00;100005.47;4900198;29;20060;-81
2020/12/02 10:40:17;;;;;;;2.72;1.20;;;;;;;6.68;100.00;100003.13;4900719;29;20248;-86
2020/12/02 10:43:20;;;;;;;1.15;0.52;;;;;;;6.71;100.00;99999.50;4900234;29;20055;-80
2020/12/02 10:46:12;;;;;;;2.78;1.15;;;;;;;6.72;100.00;100001.03;4901027;29;20052;-86
2020/12/02 10:49:03;;;;;;;4.90;1.35;;;;;;;6.74;100.00;99990.28;4900248;29;20095;-85
2020/12/02 10:51:49;;;;;;;8.55;1.27;;;;;;;6.77;100.00;99975.56;4913643;29;20170;-84
2020/12/02 10:54:35;;;;;;;1.83;1.35;;;;;;;6.80;100.00;99969.13;4899364;29;20056;-82
2020/12/02 10:57:23;;;;;;;1.42;0.68;;;;;;;6.77;100.00;99964.50;4912521;29;20063;-84
2020/12/02 11:00:10;;;;;;;0.75;0.52;;;;;;;6.76;100.00;99951.88;4899765;29;20100;-85
2020/12/02 11:03:13;;;;;;;2.33;1.10;;;;;;;6.73;100.00;99936.16;4900228;29;20052;-84
2020/12/02 11:06:10;;;;;;;1.63;0.77;;;;;;;6.72;100.00;99934.59;4898848;29;20409;-82
2020/12/02 11:09:28;;;;;;;1.95;1.33;;;;;;;6.74;100.00;99923.88;4899474;29;20055;-82
2020/12/02 11:12:15;;;;;;;2.17;0.65;;;;;;;6.78;100.00;99917.00;4898667;29;20193;-82
2020/12/02 11:15:18;;;;;;;4.70;1.10;;;;;;;6.81;100.00;99909.78;4899511;29;20055;-82
2020/12/02 11:18:07;;;;;;;2.08;1.17;;;;;;;6.84;100.00;99911.66;4898761;29;20120;-82
2020/12/02 11:21:06;;;;;;;3.13;1.05;;;;;;;6.85;100.00;99904.91;4899938;29;20136;-83
2020/12/02 11:24:09;;;;;;;1.80;0.40;;;;;;;6.85;100.00;99910.44;4900120;29;20059;-84
2020/12/02 11:26:53;;;;;;;4.10;1.13;;;;;;;6.82;100.00;99911.34;4898880;29;20052;-82
2020/12/02 11:29:37;;;;;;;15.10;1.50;;;;;;;6.78;100.00;99910.66;4898960;29;20048;-84
2020/12/02 11:32:57;;;;;;;3.67;1.92;;;;;;;6.73;100.00;99900.97;4898255;29;20117;-79
2020/12/02 11:36:00;;;;;;;2.75;0.55;;;;;;;6.65;100.00;99912.72;4898091;29;20059;-80
2020/12/02 11:39:00;;;;;;;1.05;1.00;;;;;;;6.56;100.00;99904.34;4899340;29;20059;-81
2020/12/02 11:42:01;;;;;;;0.77;0.40;;;;;;;6.45;100.00;99928.81;4899338;29;20048;-80
2020/12/02 11:44:52;;;;;;;;;;;;;;;6.37;100.00;99921.97;4899438;29;20051;-80
2020/12/02 11:47:36;;;;;;;1.20;0.93;;;;;;;6.28;100.00;99930.19;4899063;29;19927;-80
2020/12/02 11:50:31;;;;;;;1.30;0.30;;;;;;;6.24;100.00;99921.22;4899172;29;20512;-80
2020/12/02 11:53:24;;;;;;;0.43;0.10;;;;;;;6.24;100.00;99910.91;4899198;29;20104;-78
2020/12/02 11:56:17;;;;;;;12.38;1.65;;;;;;;6.29;100.00;99912.34;4898220;29;20531;-91
2020/12/02 11:59:03;;;;;;;0.52;0.52;;;;;;;6.29;100.00;99909.59;4898546;29;20405;-84
2020/12/02 12:01:47;;;;;;;1.27;0.30;;;;;;;6.30;100.00;99886.25;4898475;29;20524;-82
2020/12/02 12:04:34;;;;;;;4.43;0.57;;;;;;;6.26;100.00;99893.91;4897847;29;20112;-85
2020/12/02 12:07:52;;;;;;;0.40;0.40;;;;;;;6.28;100.00;99878.38;4899207;29;20055;-80
2020/12/02 12:10:59;;;;;;;0.30;0.25;;;;;;;6.31;100.00;99882.25;4899343;29;20055;-81
2020/12/02 12:13:51;;;;;;;11.57;1.27;;;;;;;6.32;100.00;99875.53;4899159;29;20100;-89
2020/12/02 12:17:14;;;;;;;3.15;0.52;;;;;;;6.27;100.00;99865.03;4884871;29;20059;-78
2020/12/02 12:20:09;;;;;;;0.43;0.15;;;;;;;6.16;100.00;99859.06;4898575;29;20056;-78
2020/12/02 12:23:24;;;;;;;3.38;1.05;;;;;;;6.08;100.00;99859.31;4898972;29;20438;-83
2020/12/02 12:26:11;;;;;;;0.35;0.10;;;;;;;6.04;100.00;99850.34;4897343;29;20108;-77
2020/12/02 12:28:55;;;;;;;1.75;0.77;;;;;;;6.02;100.00;99843.75;4898373;29;20115;-76
2020/12/02 12:31:45;;;;;;;1.10;0.35;;;;;;;6.03;100.00;99837.75;4898421;29;20052;-79
2020/12/02 12:34:46;;;;;;;20.08;1.48;;;;;;;6.10;100.00;99831.22;4897193;29;20059;-79
2020/12/02 12:37:36;;;;;;;1.33;0.40;;;;;;;6.28;100.00;99836.16;4897390;29;20091;-78
2020/12/02 12:40:26;;;;;;;4.85;0.52;;;;;;;6.44;100.00;99834.00;4897852;29;20112;-78
2020/12/02 12:43:14;;;;;;;0.22;0.20;;;;;;;6.66;100.00;99825.72;4898369;29;20141;-79
2020/12/02 12:46:17;;;;;;;1.10;0.82;;;;;;;6.71;100.00;99811.31;4883992;29;20060;-79
2020/12/02 12:49:03;;;;;;;2.00;0.65;;;;;;;6.74;100.00;99815.94;4897783;29;20504;-79
2020/12/02 12:51:53;;;;;;;8.10;0.32;;;;;;;6.73;100.00;99819.94;4897847;29;20263;-79
2020/12/02 12:54:38;;;;;;;1.23;0.20;;;;;;;6.70;100.00;99809.75;4897703;29;20064;-78
2020/12/02 12:57:27;;;;;;;1.30;0.68;;;;;;;6.63;100.00;99810.00;4898028;29;20120;-78
2020/12/02 13:00:11;;;;;;;0.25;0.10;;;;;;;6.56;100.00;99799.22;4897623;29;20124;-78
2020/12/02 13:03:10;;;;;;;0.77;0.50;;;;;;;6.45;100.00;99794.06;4897717;29;20525;-78
2020/12/02 13:06:16;;;;;;;5.03;0.60;;;;;;;6.37;100.00;99792.75;4897609;29;20063;-79
2020/12/02 13:09:06;;;;;;;2.10;0.65;;;;;;;6.30;100.00;99798.53;4897292;29;20055;-78
2020/12/02 13:12:19;;;;;;;5.85;0.60;;;;;;;6.16;100.00;99793.50;4897420;29;20059;-78
2020/12/02 13:15:45;;;;;;;0.32;0.30;;;;;;;6.08;100.00;99794.97;4896531;29;20052;-78
2020/12/02 13:19:07;;;;;;;2.25;0.70;;;;;;;5.99;100.00;99795.66;4896997;29;20058;-78
2020/12/02 13:21:55;;;;;;;0.47;0.22;;;;;;;5.97;100.00;99791.78;4897368;29;20085;-79
2020/12/02 13:25:04;;;;;;;0.60;0.52;;;;;;;5.97;100.00;99781.50;4895313;29;20056;-79
2020/12/02 13:28:11;;;;;;;0.20;0.20;;;;;;;5.98;100.00;99771.97;4896980;29;20638;-79
2020/12/02 13:31:01;;;;;;;1.15;0.82;;;;;;;5.99;100.00;99772.75;4897039;29;20052;-78
2020/12/02 13:33:48;;;;;;;4.88;1.13;;;;;;;6.01;100.00;99771.09;4896625;29;20055;-78
2020/12/02 13:36:35;;;;;;;1.88;0.55;;;;;;;6.02;100.00;99758.81;4896770;29;20413;-80
2020/12/02 13:39:20;;;;;;;4.28;0.35;;;;;;;6.02;100.00;99761.56;4897358;29;20054;-79
2020/12/02 13:42:05;;;;;;;5.22;0.30;;;;;;;6.00;100.00;99752.94;4897100;29;20117;-80
2020/12/02 13:44:56;;;;;;;1.77;0.93;;;;;;;6.00;100.00;99758.47;4897400;29;20421;-80
2020/12/02 13:47:44;;;;;;;1.80;0.60;;;;;;;5.98;100.00;99754.59;4896849;29;20055;-80
2020/12/02 13:50:31;;;;;;;5.45;0.47;;;;;;;5.96;100.00;99757.06;4896479;29;20047;-79
2020/12/02 13:53:26;;;;;;;3.13;0.82;;;;;;;5.91;100.00;99750.09;4897657;29;20181;-80
2020/12/02 13:56:22;;;;;;;11.43;1.13;;;;;;;5.88;100.00;99756.53;4897072;29;20055;-79
2020/12/02 13:59:28;;;;;;;1.27;0.98;;;;;;;5.84;100.00;99753.13;4896022;29;20127;-80
2020/12/02 14:02:32;;;;;;;1.10;0.73;;;;;;;5.83;100.00;99748.78;4896995;29;20127;-79
2020/12/02 14:05:38;;;;;;;0.38;0.38;;;;;;;5.83;100.00;99743.25;4896754;29;20048;-78
2020/12/02 14:08:24;;;;;;;7.97;1.08;;;;;;;5.87;100.00;99743.13;4896825;29;20059;-77